sensor_id;sensor_type;location;lat;lon;timestamp;temperature;humidity
20520;DHT22;53432;51.952;14.740;2022-09-09T00:00:23;17.20;99.90
20520;DHT22;53432;51.952;14.740;2022-09-09T00:02:56;17.20;99.90
20520;DHT22;53432;51.952;14.740;2022-09-09T00:05:31;17.20;99.90
20520;DHT22;53432;51.952;14.740;2022-09-09T00:08:02;17.20;99.90
20520;DHT22;53432;51.952;14.740;2022-09-09T00:10:33;17.10;99.90
20520;DHT22;53432;51.952;14.740;2022-09-09T00:13:11;17.10;99.90
20520;DHT22;53432;51.952;14.740;2022-09-09T00:15:50;17.10;99.90
20520;DHT22;53432;51.952;14.740;2022-09-09T00:18:25;17.00;99.90
20520;DHT22;53432;51.952;14.740;2022-09-09T00:21:04;16.90;99.90
20520;DHT22;53432;51.952;14.740;2022-09-09T00:23:35;16.90;99.90
20520;DHT22;53432;51.952;14.740;2022-09-09T00:26:09;16.90;99.90
20520;DHT22;53432;51.952;14.740;2022-09-09T00:28:42;16.90;99.90
20520;DHT22;53432;51.952;14.740;2022-09-09T00:31:15;16.80;99.90
20520;DHT22;53432;51.952;14.740;2022-09-09T00:33:44;16.90;99.90
20520;DHT22;53432;51.952;14.740;2022-09-09T00:36:16;16.90;99.90
20520;DHT22;53432;51.952;14.740;2022-09-09T00:38:48;16.90;99.90
20520;DHT22;53432;51.952;14.740;2022-09-09T00:41:21;16.80;99.90
20520;DHT22;53432;51.952;14.740;2022-09-09T00:43:56;16.70;99.90
20520;DHT22;53432;51.952;14.740;2022-09-09T00:46:41;16.60;99.90
20520;DHT22;53432;51.952;14.740;2022-09-09T00:49:18;16.60;99.90
20520;DHT22;53432;51.952;14.740;2022-09-09T00:51:52;16.60;99.90
20520;DHT22;53432;51.952;14.740;2022-09-09T00:54:30;16.60;99.90
20520;DHT22;53432;51.952;14.740;2022-09-09T00:57:12;16.60;99.90
20520;DHT22;53432;51.952;14.740;2022-09-09T00:59:46;16.60;99.90
20520;DHT22;53432;51.952;14.740;2022-09-09T01:02:21;16.60;99.90
20520;DHT22;53432;51.952;14.740;2022-09-09T01:04:52;16.60;99.90
20520;DHT22;53432;51.952;14.740;2022-09-09T01:07:22;16.60;99.90
20520;DHT22;53432;51.952;14.740;2022-09-09T01:09:55;16.60;99.90
20520;DHT22;53432;51.952;14.740;2022-09-09T01:12:33;16.60;99.90
20520;DHT22;53432;51.952;14.740;2022-09-09T01:15:08;16.60;99.90
20520;DHT22;53432;51.952;14.740;2022-09-09T01:17:49;16.60;99.90
20520;DHT22;53432;51.952;14.740;2022-09-09T01:20:20;16.60;99.90
20520;DHT22;53432;51.952;14.740;2022-09-09T01:23:04;16.60;99.90
20520;DHT22;53432;51.952;14.740;2022-09-09T01:26:15;16.60;99.90
20520;DHT22;53432;51.952;14.740;2022-09-09T01:28:46;16.60;99.90
20520;DHT22;53432;51.952;14.740;2022-09-09T01:31:17;16.60;99.90
20520;DHT22;53432;51.952;14.740;2022-09-09T01:33:45;16.60;99.90
20520;DHT22;53432;51.952;14.740;2022-09-09T01:36:18;16.60;99.90
20520;DHT22;53432;51.952;14.740;2022-09-09T01:38:46;16.60;99.90
20520;DHT22;53432;51.952;14.740;2022-09-09T01:41:15;16.60;99.90
20520;DHT22;53432;51.952;14.740;2022-09-09T01:43:42;16.60;99.90
20520;DHT22;53432;51.952;14.740;2022-09-09T01:46:11;16.60;99.90
20520;DHT22;53432;51.952;14.740;2022-09-09T01:48:40;16.60;99.90
20520;DHT22;53432;51.952;14.740;2022-09-09T01:51:08;16.50;99.90
20520;DHT22;53432;51.952;14.740;2022-09-09T01:53:36;16.50;99.90
20520;DHT22;53432;51.952;14.740;2022-09-09T01:56:11;16.50;99.90
20520;DHT22;53432;51.952;14.740;2022-09-09T01:58:57;16.50;99.90
20520;DHT22;53432;51.952;14.740;2022-09-09T02:01:34;16.40;99.90
20520;DHT22;53432;51.952;14.740;2022-09-09T02:04:17;16.40;99.90
20520;DHT22;53432;51.952;14.740;2022-09-09T02:06:48;16.30;99.90
20520;DHT22;53432;51.952;14.740;2022-09-09T02:09:19;16.30;99.90
20520;DHT22;53432;51.952;14.740;2022-09-09T02:11:54;16.30;99.90
20520;DHT22;53432;51.952;14.740;2022-09-09T02:14:28;16.30;99.90
20520;DHT22;53432;51.952;14.740;2022-09-09T02:17:01;16.30;99.90
20520;DHT22;53432;51.952;14.740;2022-09-09T02:19:32;16.30;99.90
20520;DHT22;53432;51.952;14.740;2022-09-09T02:22:02;16.30;99.90
20520;DHT22;53432;51.952;14.740;2022-09-09T02:24:32;16.30;99.90
20520;DHT22;53432;51.952;14.740;2022-09-09T02:27:02;16.30;99.90
20520;DHT22;53432;51.952;14.740;2022-09-09T02:29:35;16.30;99.90
20520;DHT22;53432;51.952;14.740;2022-09-09T02:32:06;16.20;99.90
20520;DHT22;53432;51.952;14.740;2022-09-09T02:34:36;16.20;99.90
20520;DHT22;53432;51.952;14.740;2022-09-09T02:37:08;16.10;99.90
20520;DHT22;53432;51.952;14.740;2022-09-09T02:39:36;16.10;99.90
20520;DHT22;53432;51.952;14.740;2022-09-09T02:42:04;16.10;99.90
20520;DHT22;53432;51.952;14.740;2022-09-09T02:44:34;16.10;99.90
20520;DHT22;53432;51.952;14.740;2022-09-09T02:47:16;16.00;99.90
20520;DHT22;53432;51.952;14.740;2022-09-09T02:49:48;16.00;99.90
20520;DHT22;53432;51.952;14.740;2022-09-09T02:52:21;16.00;99.90
20520;DHT22;53432;51.952;14.740;2022-09-09T02:54:56;16.00;99.90
20520;DHT22;53432;51.952;14.740;2022-09-09T02:57:27;16.00;99.90
20520;DHT22;53432;51.952;14.740;2022-09-09T02:59:58;16.00;99.90
20520;DHT22;53432;51.952;14.740;2022-09-09T03:02:26;16.00;99.90
20520;DHT22;53432;51.952;14.740;2022-09-09T03:04:53;16.00;99.90
20520;DHT22;53432;51.952;14.740;2022-09-09T03:07:21;16.00;99.90
20520;DHT22;53432;51.952;14.740;2022-09-09T03:09:48;16.00;99.90
20520;DHT22;53432;51.952;14.740;2022-09-09T03:12:15;16.00;99.90
20520;DHT22;53432;51.952;14.740;2022-09-09T03:14:43;15.90;99.90
20520;DHT22;53432;51.952;14.740;2022-09-09T03:17:13;15.90;99.90
20520;DHT22;53432;51.952;14.740;2022-09-09T03:19:40;15.80;99.90
20520;DHT22;53432;51.952;14.740;2022-09-09T03:22:09;15.80;99.90
20520;DHT22;53432;51.952;14.740;2022-09-09T03:24:37;15.80;99.90
20520;DHT22;53432;51.952;14.740;2022-09-09T03:27:04;15.80;99.90
20520;DHT22;53432;51.952;14.740;2022-09-09T03:29:32;15.70;99.90
20520;DHT22;53432;51.952;14.740;2022-09-09T03:32:00;15.60;99.90
20520;DHT22;53432;51.952;14.740;2022-09-09T03:34:28;15.50;99.90
20520;DHT22;53432;51.952;14.740;2022-09-09T03:36:56;15.50;99.90
20520;DHT22;53432;51.952;14.740;2022-09-09T03:39:23;15.50;99.90
20520;DHT22;53432;51.952;14.740;2022-09-09T03:41:50;15.50;99.90
20520;DHT22;53432;51.952;14.740;2022-09-09T03:44:18;15.40;99.90
20520;DHT22;53432;51.952;14.740;2022-09-09T03:46:45;15.30;99.90
20520;DHT22;53432;51.952;14.740;2022-09-09T03:49:13;15.30;99.90
20520;DHT22;53432;51.952;14.740;2022-09-09T03:51:42;15.30;99.90
20520;DHT22;53432;51.952;14.740;2022-09-09T03:54:09;15.30;99.90
20520;DHT22;53432;51.952;14.740;2022-09-09T03:56:37;15.40;99.90
20520;DHT22;53432;51.952;14.740;2022-09-09T03:59:04;15.40;99.90
20520;DHT22;53432;51.952;14.740;2022-09-09T04:01:32;15.40;99.90
20520;DHT22;53432;51.952;14.740;2022-09-09T04:03:59;15.50;99.90
20520;DHT22;53432;51.952;14.740;2022-09-09T04:06:28;15.50;99.90
20520;DHT22;53432;51.952;14.740;2022-09-09T04:08:57;15.50;99.90
20520;DHT22;53432;51.952;14.740;2022-09-09T04:11:24;15.50;99.90
20520;DHT22;53432;51.952;14.740;2022-09-09T04:13:51;15.40;99.90
20520;DHT22;53432;51.952;14.740;2022-09-09T04:16:19;15.40;99.90
20520;DHT22;53432;51.952;14.740;2022-09-09T04:18:46;15.40;99.90
20520;DHT22;53432;51.952;14.740;2022-09-09T04:21:15;15.40;99.90
20520;DHT22;53432;51.952;14.740;2022-09-09T04:23:43;15.40;99.90
20520;DHT22;53432;51.952;14.740;2022-09-09T04:26:11;15.40;99.90
20520;DHT22;53432;51.952;14.740;2022-09-09T04:28:39;15.40;99.90
20520;DHT22;53432;51.952;14.740;2022-09-09T04:31:08;15.40;99.90
20520;DHT22;53432;51.952;14.740;2022-09-09T04:33:37;15.40;99.90
20520;DHT22;53432;51.952;14.740;2022-09-09T04:36:05;15.40;99.90
20520;DHT22;53432;51.952;14.740;2022-09-09T04:38:33;15.40;99.90
20520;DHT22;53432;51.952;14.740;2022-09-09T04:41:00;15.50;99.90
20520;DHT22;53432;51.952;14.740;2022-09-09T04:43:29;15.50;99.90
20520;DHT22;53432;51.952;14.740;2022-09-09T04:45:57;15.50;99.90
20520;DHT22;53432;51.952;14.740;2022-09-09T04:48:25;15.40;99.90
20520;DHT22;53432;51.952;14.740;2022-09-09T04:50:57;15.40;99.90
20520;DHT22;53432;51.952;14.740;2022-09-09T04:53:25;15.40;99.90
20520;DHT22;53432;51.952;14.740;2022-09-09T04:56:01;15.40;99.90
20520;DHT22;53432;51.952;14.740;2022-09-09T04:58:30;15.40;99.90
20520;DHT22;53432;51.952;14.740;2022-09-09T05:01:04;15.40;99.90
20520;DHT22;53432;51.952;14.740;2022-09-09T05:03:31;15.40;99.90
20520;DHT22;53432;51.952;14.740;2022-09-09T05:06:05;15.30;99.90
20520;DHT22;53432;51.952;14.740;2022-09-09T05:08:32;15.30;99.90
20520;DHT22;53432;51.952;14.740;2022-09-09T05:11:00;15.30;99.90
20520;DHT22;53432;51.952;14.740;2022-09-09T05:13:31;15.20;99.90
20520;DHT22;53432;51.952;14.740;2022-09-09T05:15:58;15.20;99.90
20520;DHT22;53432;51.952;14.740;2022-09-09T05:18:25;15.20;99.90
20520;DHT22;53432;51.952;14.740;2022-09-09T05:20:58;15.30;99.90
20520;DHT22;53432;51.952;14.740;2022-09-09T05:23:26;15.20;99.90
20520;DHT22;53432;51.952;14.740;2022-09-09T05:25:56;15.30;99.90
20520;DHT22;53432;51.952;14.740;2022-09-09T05:28:23;15.30;99.90
20520;DHT22;53432;51.952;14.740;2022-09-09T05:30:59;15.30;99.90
20520;DHT22;53432;51.952;14.740;2022-09-09T05:33:30;15.30;99.90
20520;DHT22;53432;51.952;14.740;2022-09-09T05:35:59;15.20;99.90
20520;DHT22;53432;51.952;14.740;2022-09-09T05:38:27;15.10;99.90
20520;DHT22;53432;51.952;14.740;2022-09-09T05:40:54;15.10;99.90
20520;DHT22;53432;51.952;14.740;2022-09-09T05:43:23;15.10;99.90
20520;DHT22;53432;51.952;14.740;2022-09-09T05:46:01;15.10;99.90
20520;DHT22;53432;51.952;14.740;2022-09-09T05:48:30;15.20;99.90
20520;DHT22;53432;51.952;14.740;2022-09-09T05:50:58;15.20;99.90
20520;DHT22;53432;51.952;14.740;2022-09-09T05:53:26;15.20;99.90
20520;DHT22;53432;51.952;14.740;2022-09-09T05:56:01;15.20;99.90
20520;DHT22;53432;51.952;14.740;2022-09-09T05:58:30;15.30;99.90
20520;DHT22;53432;51.952;14.740;2022-09-09T06:01:03;15.30;99.90
20520;DHT22;53432;51.952;14.740;2022-09-09T06:03:34;15.30;99.90
20520;DHT22;53432;51.952;14.740;2022-09-09T06:06:03;15.30;99.90
20520;DHT22;53432;51.952;14.740;2022-09-09T06:08:32;15.20;99.90
20520;DHT22;53432;51.952;14.740;2022-09-09T06:11:03;15.20;99.90
20520;DHT22;53432;51.952;14.740;2022-09-09T06:13:32;15.30;99.90
20520;DHT22;53432;51.952;14.740;2022-09-09T06:15:59;15.20;99.90
20520;DHT22;53432;51.952;14.740;2022-09-09T06:18:28;15.30;99.90
20520;DHT22;53432;51.952;14.740;2022-09-09T06:20:56;15.30;99.90
20520;DHT22;53432;51.952;14.740;2022-09-09T06:23:24;15.30;99.90
20520;DHT22;53432;51.952;14.740;2022-09-09T06:25:59;15.30;99.90
20520;DHT22;53432;51.952;14.740;2022-09-09T06:28:27;15.30;99.90
20520;DHT22;53432;51.952;14.740;2022-09-09T06:30:57;15.30;99.90
20520;DHT22;53432;51.952;14.740;2022-09-09T06:33:25;15.30;99.90
20520;DHT22;53432;51.952;14.740;2022-09-09T06:35:55;15.40;99.90
20520;DHT22;53432;51.952;14.740;2022-09-09T06:38:23;15.40;99.90
20520;DHT22;53432;51.952;14.740;2022-09-09T06:40:52;15.40;99.90
20520;DHT22;53432;51.952;14.740;2022-09-09T06:43:20;15.40;99.90
20520;DHT22;53432;51.952;14.740;2022-09-09T06:45:53;15.40;99.90
20520;DHT22;53432;51.952;14.740;2022-09-09T06:48:21;15.40;99.90
20520;DHT22;53432;51.952;14.740;2022-09-09T06:50:48;15.50;99.90
20520;DHT22;53432;51.952;14.740;2022-09-09T06:53:18;15.50;99.90
20520;DHT22;53432;51.952;14.740;2022-09-09T06:55:46;15.60;99.90
20520;DHT22;53432;51.952;14.740;2022-09-09T06:58:14;15.70;99.90
20520;DHT22;53432;51.952;14.740;2022-09-09T07:00:41;15.70;99.90
20520;DHT22;53432;51.952;14.740;2022-09-09T07:03:09;15.80;99.90
20520;DHT22;53432;51.952;14.740;2022-09-09T07:05:37;15.90;99.90
20520;DHT22;53432;51.952;14.740;2022-09-09T07:08:04;16.00;99.90
20520;DHT22;53432;51.952;14.740;2022-09-09T07:10:33;16.10;99.90
20520;DHT22;53432;51.952;14.740;2022-09-09T07:13:00;16.20;99.90
20520;DHT22;53432;51.952;14.740;2022-09-09T07:15:28;16.30;99.90
20520;DHT22;53432;51.952;14.740;2022-09-09T07:17:55;16.30;99.90
20520;DHT22;53432;51.952;14.740;2022-09-09T07:20:22;16.40;99.90
20520;DHT22;53432;51.952;14.740;2022-09-09T07:22:50;16.50;99.90
20520;DHT22;53432;51.952;14.740;2022-09-09T07:25:17;16.60;99.90
20520;DHT22;53432;51.952;14.740;2022-09-09T07:27:46;16.70;99.90
20520;DHT22;53432;51.952;14.740;2022-09-09T07:30:13;16.90;99.90
20520;DHT22;53432;51.952;14.740;2022-09-09T07:32:40;17.00;99.90
20520;DHT22;53432;51.952;14.740;2022-09-09T07:35:08;17.10;99.90
20520;DHT22;53432;51.952;14.740;2022-09-09T07:37:37;17.20;99.90
20520;DHT22;53432;51.952;14.740;2022-09-09T07:40:05;17.40;99.90
20520;DHT22;53432;51.952;14.740;2022-09-09T07:42:32;17.50;99.90
20520;DHT22;53432;51.952;14.740;2022-09-09T07:45:01;17.70;99.90
20520;DHT22;53432;51.952;14.740;2022-09-09T07:47:28;17.80;99.90
20520;DHT22;53432;51.952;14.740;2022-09-09T07:49:56;17.90;99.90
20520;DHT22;53432;51.952;14.740;2022-09-09T07:52:24;18.00;99.90
20520;DHT22;53432;51.952;14.740;2022-09-09T07:54:53;18.20;99.90
20520;DHT22;53432;51.952;14.740;2022-09-09T07:57:22;18.30;99.90
20520;DHT22;53432;51.952;14.740;2022-09-09T07:59:49;18.40;99.90
20520;DHT22;53432;51.952;14.740;2022-09-09T08:02:19;18.50;99.90
20520;DHT22;53432;51.952;14.740;2022-09-09T08:04:46;18.60;99.90
20520;DHT22;53432;51.952;14.740;2022-09-09T08:07:14;18.80;99.90
20520;DHT22;53432;51.952;14.740;2022-09-09T08:09:42;18.90;99.90
20520;DHT22;53432;51.952;14.740;2022-09-09T08:12:09;19.10;99.90
20520;DHT22;53432;51.952;14.740;2022-09-09T08:14:38;19.20;99.90
20520;DHT22;53432;51.952;14.740;2022-09-09T08:17:06;19.30;99.90
20520;DHT22;53432;51.952;14.740;2022-09-09T08:19:35;19.30;99.90
20520;DHT22;53432;51.952;14.740;2022-09-09T08:22:02;19.40;99.90
20520;DHT22;53432;51.952;14.740;2022-09-09T08:24:30;19.50;99.90
20520;DHT22;53432;51.952;14.740;2022-09-09T08:26:57;19.50;99.90
20520;DHT22;53432;51.952;14.740;2022-09-09T08:29:25;19.60;99.90
20520;DHT22;53432;51.952;14.740;2022-09-09T08:31:56;19.60;99.90
20520;DHT22;53432;51.952;14.740;2022-09-09T08:34:24;19.70;99.90
20520;DHT22;53432;51.952;14.740;2022-09-09T08:36:54;19.70;99.90
20520;DHT22;53432;51.952;14.740;2022-09-09T08:39:22;19.80;99.90
20520;DHT22;53432;51.952;14.740;2022-09-09T08:42:22;20.00;99.90
20520;DHT22;53432;51.952;14.740;2022-09-09T08:45:02;20.20;99.90
20520;DHT22;53432;51.952;14.740;2022-09-09T08:47:35;20.30;99.90
20520;DHT22;53432;51.952;14.740;2022-09-09T08:50:15;20.40;99.90
20520;DHT22;53432;51.952;14.740;2022-09-09T08:52:53;20.50;99.90
20520;DHT22;53432;51.952;14.740;2022-09-09T08:55:25;20.60;99.90
20520;DHT22;53432;51.952;14.740;2022-09-09T08:57:55;20.70;99.90
20520;DHT22;53432;51.952;14.740;2022-09-09T09:00:32;20.80;99.90
20520;DHT22;53432;51.952;14.740;2022-09-09T09:03:07;20.90;99.90
20520;DHT22;53432;51.952;14.740;2022-09-09T09:05:43;20.90;99.90
20520;DHT22;53432;51.952;14.740;2022-09-09T09:08:20;21.10;99.90
20520;DHT22;53432;51.952;14.740;2022-09-09T09:10:54;21.10;99.90
20520;DHT22;53432;51.952;14.740;2022-09-09T09:13:34;21.20;99.90
20520;DHT22;53432;51.952;14.740;2022-09-09T09:16:09;21.30;99.90
20520;DHT22;53432;51.952;14.740;2022-09-09T09:18:37;21.30;99.90
20520;DHT22;53432;51.952;14.740;2022-09-09T09:21:10;21.50;99.90
20520;DHT22;53432;51.952;14.740;2022-09-09T09:23:45;21.60;99.90
20520;DHT22;53432;51.952;14.740;2022-09-09T09:26:15;21.60;99.90
20520;DHT22;53432;51.952;14.740;2022-09-09T09:28:42;21.60;99.90
20520;DHT22;53432;51.952;14.740;2022-09-09T09:31:11;21.60;99.90
20520;DHT22;53432;51.952;14.740;2022-09-09T09:33:46;21.60;99.90
20520;DHT22;53432;51.952;14.740;2022-09-09T09:36:15;21.70;99.90
20520;DHT22;53432;51.952;14.740;2022-09-09T09:38:54;21.80;99.90
20520;DHT22;53432;51.952;14.740;2022-09-09T09:41:36;22.00;99.90
20520;DHT22;53432;51.952;14.740;2022-09-09T09:44:05;22.20;99.90
20520;DHT22;53432;51.952;14.740;2022-09-09T09:46:33;22.20;99.90
20520;DHT22;53432;51.952;14.740;2022-09-09T09:49:02;22.10;99.90
20520;DHT22;53432;51.952;14.740;2022-09-09T09:51:32;22.10;99.90
20520;DHT22;53432;51.952;14.740;2022-09-09T09:54:11;22.10;99.90
20520;DHT22;53432;51.952;14.740;2022-09-09T09:56:43;22.20;99.90
20520;DHT22;53432;51.952;14.740;2022-09-09T09:59:20;22.20;99.90
20520;DHT22;53432;51.952;14.740;2022-09-09T10:01:48;22.20;99.90
20520;DHT22;53432;51.952;14.740;2022-09-09T10:04:18;22.30;99.90
20520;DHT22;53432;51.952;14.740;2022-09-09T10:06:46;22.40;99.90
20520;DHT22;53432;51.952;14.740;2022-09-09T10:09:23;22.50;99.90
20520;DHT22;53432;51.952;14.740;2022-09-09T10:11:57;22.60;99.90
20520;DHT22;53432;51.952;14.740;2022-09-09T10:14:27;22.60;99.90
20520;DHT22;53432;51.952;14.740;2022-09-09T10:17:11;22.70;99.90
20520;DHT22;53432;51.952;14.740;2022-09-09T10:19:44;22.80;99.90
20520;DHT22;53432;51.952;14.740;2022-09-09T10:22:25;22.70;99.90
20520;DHT22;53432;51.952;14.740;2022-09-09T10:25:16;22.70;99.90
20520;DHT22;53432;51.952;14.740;2022-09-09T10:28:06;22.80;99.90
20520;DHT22;53432;51.952;14.740;2022-09-09T10:30:46;22.90;99.90
20520;DHT22;53432;51.952;14.740;2022-09-09T10:33:24;23.00;99.90
20520;DHT22;53432;51.952;14.740;2022-09-09T10:36:05;23.10;99.90
20520;DHT22;53432;51.952;14.740;2022-09-09T10:38:40;23.10;99.90
20520;DHT22;53432;51.952;14.740;2022-09-09T10:41:35;23.20;99.90
20520;DHT22;53432;51.952;14.740;2022-09-09T10:44:34;23.20;99.90
20520;DHT22;53432;51.952;14.740;2022-09-09T10:50:33;23.20;99.90
20520;DHT22;53432;51.952;14.740;2022-09-09T10:53:11;23.30;99.90
20520;DHT22;53432;51.952;14.740;2022-09-09T10:55:43;23.40;99.90
20520;DHT22;53432;51.952;14.740;2022-09-09T10:58:17;23.40;99.90
20520;DHT22;53432;51.952;14.740;2022-09-09T11:00:48;23.60;99.90
20520;DHT22;53432;51.952;14.740;2022-09-09T11:03:20;23.70;99.90
20520;DHT22;53432;51.952;14.740;2022-09-09T11:05:51;23.70;99.90
20520;DHT22;53432;51.952;14.740;2022-09-09T11:08:20;23.70;99.90
20520;DHT22;53432;51.952;14.740;2022-09-09T11:10:53;23.70;99.90
20520;DHT22;53432;51.952;14.740;2022-09-09T11:13:30;23.60;99.90
20520;DHT22;53432;51.952;14.740;2022-09-09T11:16:05;23.70;99.90
20520;DHT22;53432;51.952;14.740;2022-09-09T11:18:40;23.60;99.90
20520;DHT22;53432;51.952;14.740;2022-09-09T11:21:15;23.60;99.90
20520;DHT22;53432;51.952;14.740;2022-09-09T11:23:49;23.60;99.90
20520;DHT22;53432;51.952;14.740;2022-09-09T11:26:24;23.50;99.90
20520;DHT22;53432;51.952;14.740;2022-09-09T11:29:04;23.60;99.90
20520;DHT22;53432;51.952;14.740;2022-09-09T11:31:44;23.60;99.90
20520;DHT22;53432;51.952;14.740;2022-09-09T11:34:34;23.60;99.90
20520;DHT22;53432;51.952;14.740;2022-09-09T11:40:17;23.60;99.90
20520;DHT22;53432;51.952;14.740;2022-09-09T11:42:46;23.50;99.90
20520;DHT22;53432;51.952;14.740;2022-09-09T11:45:23;23.50;99.90
20520;DHT22;53432;51.952;14.740;2022-09-09T11:47:52;23.50;99.90
20520;DHT22;53432;51.952;14.740;2022-09-09T11:50:35;23.40;99.90
20520;DHT22;53432;51.952;14.740;2022-09-09T11:53:17;23.40;99.90
20520;DHT22;53432;51.952;14.740;2022-09-09T11:55:47;23.40;99.90
20520;DHT22;53432;51.952;14.740;2022-09-09T11:58:17;23.40;99.90
20520;DHT22;53432;51.952;14.740;2022-09-09T12:00:48;23.40;99.90
20520;DHT22;53432;51.952;14.740;2022-09-09T12:03:35;23.60;99.90
20520;DHT22;53432;51.952;14.740;2022-09-09T12:06:15;23.70;99.90
20520;DHT22;53432;51.952;14.740;2022-09-09T12:08:46;23.70;99.90
20520;DHT22;53432;51.952;14.740;2022-09-09T12:11:25;23.80;99.90
20520;DHT22;53432;51.952;14.740;2022-09-09T12:13:53;24.00;99.90
20520;DHT22;53432;51.952;14.740;2022-09-09T12:16:31;24.00;99.90
20520;DHT22;53432;51.952;14.740;2022-09-09T12:19:13;24.10;99.90
20520;DHT22;53432;51.952;14.740;2022-09-09T12:21:48;24.20;99.90
20520;DHT22;53432;51.952;14.740;2022-09-09T12:24:25;24.10;99.90
20520;DHT22;53432;51.952;14.740;2022-09-09T12:26:58;24.10;99.90
20520;DHT22;53432;51.952;14.740;2022-09-09T12:29:38;24.10;99.90
20520;DHT22;53432;51.952;14.740;2022-09-09T12:32:11;24.10;99.90
20520;DHT22;53432;51.952;14.740;2022-09-09T12:34:41;24.10;99.90
20520;DHT22;53432;51.952;14.740;2022-09-09T12:37:16;24.20;99.90
20520;DHT22;53432;51.952;14.740;2022-09-09T12:39:49;24.30;99.90
20520;DHT22;53432;51.952;14.740;2022-09-09T12:42:18;24.40;99.90
20520;DHT22;53432;51.952;14.740;2022-09-09T12:44:53;24.30;99.90
20520;DHT22;53432;51.952;14.740;2022-09-09T12:47:26;24.30;99.90
20520;DHT22;53432;51.952;14.740;2022-09-09T12:49:55;24.30;99.90
20520;DHT22;53432;51.952;14.740;2022-09-09T12:52:27;24.20;99.90
20520;DHT22;53432;51.952;14.740;2022-09-09T12:54:57;24.30;99.90
20520;DHT22;53432;51.952;14.740;2022-09-09T12:57:26;24.40;99.90
20520;DHT22;53432;51.952;14.740;2022-09-09T13:00:11;24.30;99.90
20520;DHT22;53432;51.952;14.740;2022-09-09T13:02:49;24.30;99.90
20520;DHT22;53432;51.952;14.740;2022-09-09T13:05:20;24.30;99.90
20520;DHT22;53432;51.952;14.740;2022-09-09T13:07:48;24.20;99.90
20520;DHT22;53432;51.952;14.740;2022-09-09T13:10:21;24.20;99.90
20520;DHT22;53432;51.952;14.740;2022-09-09T13:12:50;24.20;99.90
20520;DHT22;53432;51.952;14.740;2022-09-09T13:15:21;24.10;99.90
20520;DHT22;53432;51.952;14.740;2022-09-09T13:17:53;24.10;99.90
20520;DHT22;53432;51.952;14.740;2022-09-09T13:20:22;24.20;99.90
20520;DHT22;53432;51.952;14.740;2022-09-09T13:22:51;24.20;99.90
20520;DHT22;53432;51.952;14.740;2022-09-09T13:25:22;24.20;99.90
20520;DHT22;53432;51.952;14.740;2022-09-09T13:28:00;24.10;99.90
20520;DHT22;53432;51.952;14.740;2022-09-09T13:30:29;24.10;99.90
20520;DHT22;53432;51.952;14.740;2022-09-09T13:33:05;24.00;99.90
20520;DHT22;53432;51.952;14.740;2022-09-09T13:35:32;23.90;99.90
20520;DHT22;53432;51.952;14.740;2022-09-09T13:38:07;23.90;99.90
20520;DHT22;53432;51.952;14.740;2022-09-09T13:40:35;23.70;99.90
20520;DHT22;53432;51.952;14.740;2022-09-09T13:43:04;23.60;99.90
20520;DHT22;53432;51.952;14.740;2022-09-09T13:45:31;23.50;99.90
20520;DHT22;53432;51.952;14.740;2022-09-09T13:48:10;23.50;99.90
20520;DHT22;53432;51.952;14.740;2022-09-09T13:50:39;23.50;99.90
20520;DHT22;53432;51.952;14.740;2022-09-09T13:53:07;23.50;99.90
20520;DHT22;53432;51.952;14.740;2022-09-09T13:55:36;23.40;99.90
20520;DHT22;53432;51.952;14.740;2022-09-09T13:58:05;23.40;99.90
20520;DHT22;53432;51.952;14.740;2022-09-09T14:00:34;23.30;99.90
20520;DHT22;53432;51.952;14.740;2022-09-09T14:03:01;23.20;99.90
20520;DHT22;53432;51.952;14.740;2022-09-09T14:05:32;23.10;99.90
20520;DHT22;53432;51.952;14.740;2022-09-09T14:08:00;23.20;99.90
20520;DHT22;53432;51.952;14.740;2022-09-09T14:10:27;23.10;99.90
20520;DHT22;53432;51.952;14.740;2022-09-09T14:12:55;23.10;99.90
20520;DHT22;53432;51.952;14.740;2022-09-09T14:15:22;23.10;99.90
20520;DHT22;53432;51.952;14.740;2022-09-09T14:17:49;23.10;99.90
20520;DHT22;53432;51.952;14.740;2022-09-09T14:20:18;23.10;99.90
20520;DHT22;53432;51.952;14.740;2022-09-09T14:22:47;23.10;99.90
20520;DHT22;53432;51.952;14.740;2022-09-09T14:25:14;23.10;99.90
20520;DHT22;53432;51.952;14.740;2022-09-09T14:27:42;23.10;99.90
20520;DHT22;53432;51.952;14.740;2022-09-09T14:30:10;23.10;99.90
20520;DHT22;53432;51.952;14.740;2022-09-09T14:32:38;23.10;99.90
20520;DHT22;53432;51.952;14.740;2022-09-09T14:35:05;23.20;99.90
20520;DHT22;53432;51.952;14.740;2022-09-09T14:37:33;23.10;99.90
20520;DHT22;53432;51.952;14.740;2022-09-09T14:40:02;23.00;99.90
20520;DHT22;53432;51.952;14.740;2022-09-09T14:42:29;23.10;99.90
20520;DHT22;53432;51.952;14.740;2022-09-09T14:44:57;23.10;99.90
20520;DHT22;53432;51.952;14.740;2022-09-09T14:47:24;23.10;99.90
20520;DHT22;53432;51.952;14.740;2022-09-09T14:49:52;23.10;99.90
20520;DHT22;53432;51.952;14.740;2022-09-09T14:52:19;23.20;99.90
20520;DHT22;53432;51.952;14.740;2022-09-09T14:54:47;23.10;99.90
20520;DHT22;53432;51.952;14.740;2022-09-09T14:57:16;23.20;99.90
20520;DHT22;53432;51.952;14.740;2022-09-09T14:59:44;23.20;99.90
20520;DHT22;53432;51.952;14.740;2022-09-09T15:02:11;23.30;99.90
20520;DHT22;53432;51.952;14.740;2022-09-09T15:04:39;23.40;99.90
20520;DHT22;53432;51.952;14.740;2022-09-09T15:07:07;23.40;99.90
20520;DHT22;53432;51.952;14.740;2022-09-09T15:09:34;23.40;99.90
20520;DHT22;53432;51.952;14.740;2022-09-09T15:12:03;23.30;99.90
20520;DHT22;53432;51.952;14.740;2022-09-09T15:14:33;23.30;99.90
20520;DHT22;53432;51.952;14.740;2022-09-09T15:17:01;23.10;99.90
20520;DHT22;53432;51.952;14.740;2022-09-09T15:19:28;23.10;99.90
20520;DHT22;53432;51.952;14.740;2022-09-09T15:21:55;23.00;99.90
20520;DHT22;53432;51.952;14.740;2022-09-09T15:24:23;23.10;99.90
20520;DHT22;53432;51.952;14.740;2022-09-09T15:26:51;23.10;99.90
20520;DHT22;53432;51.952;14.740;2022-09-09T15:29:19;23.30;99.90
20520;DHT22;53432;51.952;14.740;2022-09-09T15:31:48;23.40;99.90
20520;DHT22;53432;51.952;14.740;2022-09-09T15:34:16;23.60;99.90
20520;DHT22;53432;51.952;14.740;2022-09-09T15:36:44;23.80;99.90
20520;DHT22;53432;51.952;14.740;2022-09-09T15:39:13;24.00;99.90
20520;DHT22;53432;51.952;14.740;2022-09-09T15:41:42;24.20;99.90
20520;DHT22;53432;51.952;14.740;2022-09-09T15:44:10;24.40;99.90
20520;DHT22;53432;51.952;14.740;2022-09-09T15:46:40;24.60;99.90